createdAt,value
2022-10-22T00:00:54.078Z,13.51
2022-10-22T00:03:21.625Z,13.51
2022-10-22T00:05:49.483Z,13.51
2022-10-22T00:08:17.078Z,13.50
2022-10-22T00:10:44.675Z,13.50
2022-10-22T00:13:13.841Z,13.51
2022-10-22T00:15:41.397Z,13.51
2022-10-22T00:18:09.091Z,13.50
2022-10-22T00:20:36.714Z,13.50
2022-10-22T00:23:04.315Z,13.51
2022-10-22T00:25:32.223Z,13.50
2022-10-22T00:27:59.758Z,13.48
2022-10-22T00:30:30.095Z,13.48
2022-10-22T00:32:57.682Z,13.47
2022-10-22T00:35:25.371Z,13.47
2022-10-22T00:37:52.897Z,13.47
2022-10-22T00:40:20.517Z,13.47
2022-10-22T00:42:48.057Z,13.46
2022-10-22T00:45:19.981Z,13.47
2022-10-22T00:47:52.734Z,13.47
2022-10-22T00:50:24.804Z,13.49
2022-10-22T00:52:52.779Z,13.51
2022-10-22T00:55:21.630Z,13.52
2022-10-22T00:57:49.919Z,13.52
2022-10-22T01:00:18.376Z,13.53
2022-10-22T01:02:46.442Z,13.55
2022-10-22T01:05:15.434Z,13.51
2022-10-22T01:07:46.783Z,13.51
2022-10-22T01:10:25.724Z,13.50
2022-10-22T01:13:05.325Z,13.49
2022-10-22T01:15:41.214Z,13.49
2022-10-22T01:18:15.584Z,13.50
2022-10-22T01:21:00.906Z,13.50
2022-10-22T01:24:03.386Z,13.51
2022-10-22T01:26:44.769Z,13.52
2022-10-22T01:29:17.806Z,13.53
2022-10-22T01:31:50.174Z,13.54
2022-10-22T01:34:19.655Z,13.56
2022-10-22T01:36:49.075Z,13.57
2022-10-22T01:39:18.713Z,13.58
2022-10-22T01:41:46.348Z,13.60
2022-10-22T01:44:30.254Z,13.63
2022-10-22T01:47:11.841Z,13.66
2022-10-22T01:49:57.267Z,13.65
2022-10-22T01:52:32.343Z,13.64
2022-10-22T01:55:08.099Z,13.64
2022-10-22T01:57:45.181Z,13.63
2022-10-22T02:00:15.936Z,13.64
2022-10-22T02:02:50.556Z,13.63
2022-10-22T02:05:23.456Z,13.63
2022-10-22T02:07:58.531Z,13.62
2022-10-22T02:10:26.273Z,13.61
2022-10-22T02:12:56.850Z,13.58
2022-10-22T02:15:28.353Z,13.55
2022-10-22T02:17:59.506Z,13.49
2022-10-22T02:20:29.522Z,13.42
2022-10-22T02:22:58.306Z,13.35
2022-10-22T02:25:28.691Z,13.26
2022-10-22T02:28:03.582Z,13.20
2022-10-22T02:30:34.823Z,13.15
2022-10-22T02:33:06.131Z,13.10
2022-10-22T02:35:34.098Z,13.05
2022-10-22T02:38:02.514Z,13.01
2022-10-22T02:40:32.182Z,13.01
2022-10-22T02:42:59.957Z,13.00
2022-10-22T02:45:28.117Z,12.99
2022-10-22T02:47:57.013Z,12.97
2022-10-22T02:50:24.553Z,12.98
2022-10-22T02:52:52.091Z,12.98
2022-10-22T02:55:19.674Z,12.98
2022-10-22T02:57:47.242Z,12.97
2022-10-22T03:00:15.697Z,12.95
2022-10-22T03:02:43.250Z,12.95
2022-10-22T03:05:12.188Z,12.89
2022-10-22T03:07:39.920Z,12.85
2022-10-22T03:10:08.619Z,12.77
2022-10-22T03:12:36.186Z,12.72
2022-10-22T03:15:04.206Z,12.66
2022-10-22T03:17:31.740Z,12.60
2022-10-22T03:19:59.277Z,12.54
2022-10-22T03:22:30.901Z,12.49
2022-10-22T03:25:01.095Z,12.46
2022-10-22T03:27:30.347Z,12.40
2022-10-22T03:29:59.631Z,12.34
2022-10-22T03:32:27.208Z,12.27
2022-10-22T03:34:54.892Z,12.20
2022-10-22T03:37:23.362Z,12.17
2022-10-22T03:39:53.035Z,12.13
2022-10-22T03:42:21.249Z,12.10
2022-10-22T03:44:48.943Z,12.09
2022-10-22T03:47:16.637Z,12.08
2022-10-22T03:49:44.239Z,12.10
2022-10-22T03:52:14.869Z,12.11
2022-10-22T03:54:43.035Z,12.13
2022-10-22T03:57:12.533Z,12.15
2022-10-22T03:59:42.577Z,12.16
2022-10-22T04:02:10.678Z,12.17
2022-10-22T04:04:38.932Z,12.18
2022-10-22T04:07:07.944Z,12.22
2022-10-22T04:09:35.856Z,12.25
2022-10-22T04:12:05.438Z,12.29
2022-10-22T04:14:35.022Z,12.33
2022-10-22T04:17:02.653Z,12.36
2022-10-22T04:19:30.406Z,12.39
2022-10-22T04:21:59.104Z,12.42
2022-10-22T04:24:27.144Z,12.47
2022-10-22T04:26:55.618Z,12.48
2022-10-22T04:29:23.161Z,12.53
2022-10-22T04:31:52.167Z,12.56
2022-10-22T04:34:19.723Z,12.59
2022-10-22T04:36:47.279Z,12.63
2022-10-22T04:39:15.694Z,12.65
2022-10-22T04:41:43.336Z,12.69
2022-10-22T04:44:13.663Z,12.72
2022-10-22T04:46:44.662Z,12.74
2022-10-22T04:49:13.570Z,12.78
2022-10-22T04:51:41.318Z,12.81
2022-10-22T04:54:08.954Z,12.84
2022-10-22T04:56:36.470Z,12.85
2022-10-22T04:59:05.902Z,12.87
2022-10-22T05:01:39.897Z,12.89
2022-10-22T05:04:14.956Z,12.90
2022-10-22T05:06:42.902Z,12.90
2022-10-22T05:09:14.276Z,12.91
2022-10-22T05:11:48.214Z,12.90
2022-10-22T05:14:17.966Z,12.89
2022-10-22T05:16:48.124Z,12.88
2022-10-22T05:19:20.898Z,12.87
2022-10-22T05:21:48.541Z,12.86
2022-10-22T05:24:16.097Z,12.84
2022-10-22T05:26:43.681Z,12.85
2022-10-22T05:29:11.205Z,12.85
2022-10-22T05:31:39.084Z,12.86
2022-10-22T05:34:06.615Z,12.86
2022-10-22T05:36:35.506Z,12.85
2022-10-22T05:39:03.158Z,12.85
2022-10-22T05:41:30.849Z,12.84
2022-10-22T05:43:59.716Z,12.81
2022-10-22T05:46:29.551Z,12.80
2022-10-22T05:48:59.060Z,12.79
2022-10-22T05:51:28.601Z,12.79
2022-10-22T05:53:59.831Z,12.77
2022-10-22T05:56:28.606Z,12.78
2022-10-22T05:58:57.311Z,12.77
2022-10-22T06:01:27.322Z,12.77
2022-10-22T06:03:55.627Z,12.79
2022-10-22T06:06:28.470Z,12.81
2022-10-22T06:09:00.911Z,12.81
2022-10-22T06:11:31.125Z,12.84
2022-10-22T06:14:01.806Z,12.85
2022-10-22T06:16:29.908Z,12.86
2022-10-22T06:18:57.478Z,12.87
2022-10-22T06:21:25.106Z,12.88
2022-10-22T06:23:52.651Z,12.89
2022-10-22T06:26:21.521Z,12.92
2022-10-22T06:28:49.183Z,12.94
2022-10-22T06:31:16.991Z,12.95
2022-10-22T06:33:44.850Z,12.96
2022-10-22T06:36:14.731Z,12.97
2022-10-22T06:38:42.839Z,12.96
2022-10-22T06:41:13.025Z,12.97
2022-10-22T06:43:42.034Z,13.00
2022-10-22T06:46:14.688Z,13.02
2022-10-22T06:48:49.333Z,13.03
2022-10-22T06:51:16.970Z,13.05
2022-10-22T06:53:44.649Z,13.08
2022-10-22T06:56:14.450Z,13.13
2022-10-22T06:58:43.664Z,13.13
2022-10-22T07:01:13.672Z,13.14
2022-10-22T07:03:42.491Z,13.16
2022-10-22T07:06:11.798Z,13.17
2022-10-22T07:08:40.489Z,13.19
2022-10-22T07:11:09.991Z,13.21
2022-10-22T07:13:37.962Z,13.24
2022-10-22T07:16:08.670Z,13.28
2022-10-22T07:18:37.745Z,13.28
2022-10-22T07:21:06.186Z,13.31
2022-10-22T07:23:33.926Z,13.35
2022-10-22T07:26:02.466Z,13.42
2022-10-22T07:28:30.598Z,13.46
2022-10-22T07:30:58.169Z,13.52
2022-10-22T07:33:27.565Z,13.55
2022-10-22T07:35:58.866Z,13.59
2022-10-22T07:38:26.845Z,13.64
2022-10-22T07:40:54.434Z,13.67
2022-10-22T07:43:22.633Z,13.71
2022-10-22T07:45:50.407Z,13.72
2022-10-22T07:48:18.609Z,13.80
2022-10-22T07:50:47.524Z,13.83
2022-10-22T07:53:15.067Z,13.85
2022-10-22T07:55:42.641Z,13.92
2022-10-22T07:58:10.275Z,13.96
2022-10-22T08:00:38.264Z,14.00
2022-10-22T08:03:05.793Z,13.97
2022-10-22T08:05:33.347Z,14.05
2022-10-22T08:08:02.222Z,14.08
2022-10-22T08:10:29.853Z,14.11
2022-10-22T08:12:57.701Z,14.15
2022-10-22T08:15:27.130Z,14.23
2022-10-22T08:17:54.745Z,14.31
2022-10-22T08:20:22.783Z,14.36
2022-10-22T08:22:50.367Z,14.49
2022-10-22T08:25:19.565Z,14.57
2022-10-22T08:27:47.545Z,14.72
2022-10-22T08:30:15.574Z,14.77
2022-10-22T08:32:43.330Z,14.81
2022-10-22T08:35:14.078Z,14.77
2022-10-22T08:37:44.498Z,14.82
2022-10-22T08:40:24.238Z,14.80
2022-10-22T08:43:19.050Z,14.81
2022-10-22T08:45:57.635Z,14.78
2022-10-22T08:48:40.909Z,14.80
2022-10-22T08:51:13.774Z,14.85
2022-10-22T08:53:51.308Z,14.85
2022-10-22T08:56:23.263Z,14.87
2022-10-22T08:58:57.802Z,14.89
2022-10-22T09:01:34.060Z,14.92
2022-10-22T09:04:08.128Z,14.99
2022-10-22T09:06:38.615Z,15.05
2022-10-22T09:09:13.541Z,15.16
2022-10-22T09:11:46.795Z,15.24
2022-10-22T09:14:18.747Z,15.27
2022-10-22T09:17:06.138Z,15.28
2022-10-22T09:19:41.576Z,15.26
2022-10-22T09:22:19.310Z,15.29
2022-10-22T09:24:49.276Z,15.23
2022-10-22T09:27:20.263Z,15.31
2022-10-22T09:29:49.218Z,15.31
2022-10-22T09:32:18.094Z,15.47
2022-10-22T09:34:46.398Z,15.54
2022-10-22T09:37:18.358Z,15.62
2022-10-22T09:39:48.168Z,15.69
2022-10-22T09:42:19.870Z,15.81
2022-10-22T09:44:53.962Z,15.86
2022-10-22T09:47:42.891Z,16.00
2022-10-22T09:50:23.650Z,16.13
2022-10-22T09:52:59.158Z,16.21
2022-10-22T09:55:27.633Z,16.26
2022-10-22T09:57:57.771Z,16.18
2022-10-22T10:00:28.997Z,16.28
2022-10-22T10:02:58.134Z,16.21
2022-10-22T10:05:30.751Z,16.40
2022-10-22T10:07:58.401Z,16.65
2022-10-22T10:10:44.518Z,16.74
2022-10-22T10:13:29.589Z,17.02
2022-10-22T10:16:01.253Z,17.15
2022-10-22T10:18:43.430Z,17.24
2022-10-22T10:21:20.048Z,17.45
2022-10-22T10:23:57.573Z,17.55
2022-10-22T10:26:32.375Z,17.79
2022-10-22T10:29:15.426Z,17.84
2022-10-22T10:31:57.186Z,17.91
2022-10-22T10:34:37.360Z,17.86
2022-10-22T10:37:16.243Z,17.79
2022-10-22T10:39:56.892Z,17.83
2022-10-22T10:42:34.098Z,17.93
2022-10-22T10:45:16.866Z,18.06
2022-10-22T10:48:11.394Z,18.19
2022-10-22T10:50:49.121Z,18.29
2022-10-22T10:53:23.405Z,18.41
2022-10-22T10:56:00.758Z,18.52
2022-10-22T10:58:37.731Z,18.55
2022-10-22T11:01:20.160Z,18.62
2022-10-22T11:04:12.809Z,18.67
2022-10-22T11:06:40.838Z,18.65
2022-10-22T11:09:24.105Z,18.76
2022-10-22T11:11:56.011Z,18.76
2022-10-22T11:14:31.149Z,18.87
2022-10-22T11:17:06.055Z,18.97
2022-10-22T11:19:57.849Z,19.09
2022-10-22T11:22:32.778Z,19.10
2022-10-22T11:25:06.481Z,19.08
2022-10-22T11:27:40.314Z,19.13
2022-10-22T11:30:14.963Z,19.18
2022-10-22T11:32:47.373Z,19.26
2022-10-22T11:35:23.488Z,19.37
2022-10-22T11:37:55.841Z,19.43
2022-10-22T11:40:33.681Z,19.34
2022-10-22T11:43:06.113Z,19.47
2022-10-22T11:45:37.357Z,19.54
2022-10-22T11:48:18.812Z,19.62
2022-10-22T11:50:50.740Z,19.61
2022-10-22T11:53:21.074Z,19.76
2022-10-22T11:55:51.295Z,19.82
2022-10-22T11:58:42.232Z,19.88
2022-10-22T12:01:27.821Z,19.95
2022-10-22T12:04:18.911Z,19.97
2022-10-22T12:06:58.489Z,20.00
2022-10-22T12:09:30.094Z,19.99
2022-10-22T12:12:05.742Z,20.03
2022-10-22T12:14:35.534Z,19.98
2022-10-22T12:17:09.608Z,19.92
2022-10-22T12:19:40.582Z,19.75
2022-10-22T12:22:16.639Z,19.53
2022-10-22T12:24:46.721Z,19.48
2022-10-22T12:27:23.196Z,19.32
2022-10-22T12:29:55.963Z,19.25
2022-10-22T12:32:23.687Z,19.08
2022-10-22T12:34:53.611Z,19.00
2022-10-22T12:37:21.189Z,18.95
2022-10-22T12:39:48.760Z,18.93
2022-10-22T12:42:18.346Z,18.85
2022-10-22T12:44:45.981Z,18.82
2022-10-22T12:47:17.653Z,18.82
2022-10-22T12:49:49.111Z,18.72
2022-10-22T12:52:22.226Z,18.64
2022-10-22T12:54:54.694Z,18.56
2022-10-22T12:57:24.635Z,18.56
2022-10-22T12:59:53.014Z,18.59
2022-10-22T13:02:23.855Z,18.63
2022-10-22T13:05:18.739Z,18.66
2022-10-22T13:07:51.678Z,18.72
2022-10-22T13:10:24.453Z,18.82
2022-10-22T13:12:55.446Z,18.81
2022-10-22T13:15:34.451Z,18.76
2022-10-22T13:18:07.538Z,18.77
2022-10-22T13:20:37.356Z,18.77
2022-10-22T13:23:07.313Z,18.69
2022-10-22T13:25:37.294Z,18.61
2022-10-22T13:28:20.761Z,18.49
2022-10-22T13:30:54.418Z,18.32
2022-10-22T13:33:27.205Z,18.16
2022-10-22T13:35:56.469Z,18.12
2022-10-22T13:38:27.414Z,18.03
2022-10-22T13:40:55.483Z,17.96
2022-10-22T13:43:23.670Z,17.76
2022-10-22T13:45:55.239Z,17.63
2022-10-22T13:48:24.604Z,17.43
2022-10-22T13:50:54.008Z,17.28
2022-10-22T13:53:26.282Z,17.13
2022-10-22T13:55:54.158Z,17.07
2022-10-22T13:58:24.524Z,16.98
2022-10-22T14:00:55.574Z,16.88
2022-10-22T14:03:26.109Z,16.82
2022-10-22T14:05:53.833Z,16.74
2022-10-22T14:08:24.090Z,16.74
2022-10-22T14:10:53.791Z,16.74
2022-10-22T14:13:22.219Z,16.75
2022-10-22T14:15:52.372Z,16.74
2022-10-22T14:18:25.498Z,16.75
2022-10-22T14:20:56.024Z,16.75
2022-10-22T14:23:25.467Z,16.76
2022-10-22T14:25:56.146Z,16.74
2022-10-22T14:28:24.152Z,16.76
2022-10-22T14:30:52.461Z,16.72
2022-10-22T14:33:27.230Z,16.74
2022-10-22T14:35:59.422Z,16.71
2022-10-22T14:38:27.067Z,16.68
2022-10-22T14:40:56.039Z,16.65
2022-10-22T14:43:25.078Z,16.61
2022-10-22T14:45:53.176Z,16.54
2022-10-22T14:48:20.721Z,16.53
2022-10-22T14:50:49.453Z,16.53
2022-10-22T14:53:17.869Z,16.49
2022-10-22T14:55:47.327Z,16.53
2022-10-22T14:58:16.484Z,16.66
2022-10-22T15:00:44.902Z,16.70
2022-10-22T15:03:12.719Z,16.76
2022-10-22T15:05:43.323Z,16.79
2022-10-22T15:08:11.471Z,16.78
2022-10-22T15:10:39.268Z,16.70
2022-10-22T15:13:06.978Z,16.66
2022-10-22T15:15:39.673Z,16.59
2022-10-22T15:18:08.026Z,16.49
2022-10-22T15:20:35.600Z,16.43
2022-10-22T15:23:03.165Z,16.33
2022-10-22T15:25:31.074Z,16.26
2022-10-22T15:28:03.370Z,16.21
2022-10-22T15:30:38.063Z,16.15
2022-10-22T15:33:06.194Z,16.10
2022-10-22T15:35:33.771Z,16.06
2022-10-22T15:38:01.319Z,16.01
2022-10-22T15:40:28.866Z,15.95
2022-10-22T15:42:56.423Z,15.93
2022-10-22T15:45:24.976Z,15.89
2022-10-22T15:47:53.865Z,15.84
2022-10-22T15:50:21.554Z,15.79
2022-10-22T15:52:49.110Z,15.75
2022-10-22T15:55:16.846Z,15.70
2022-10-22T15:57:44.819Z,15.67
2022-10-22T16:00:13.578Z,15.63
2022-10-22T16:02:41.177Z,15.60
2022-10-22T16:05:10.940Z,15.59
2022-10-22T16:07:38.721Z,15.55
2022-10-22T16:10:07.867Z,15.52
2022-10-22T16:12:35.867Z,15.49
2022-10-22T16:15:03.505Z,15.50
2022-10-22T16:17:31.098Z,15.48
2022-10-22T16:19:58.778Z,15.46
2022-10-22T16:22:27.771Z,15.43
2022-10-22T16:24:55.314Z,15.41
2022-10-22T16:27:22.865Z,15.38
2022-10-22T16:29:50.866Z,15.36
2022-10-22T16:32:18.430Z,15.32
2022-10-22T16:34:45.953Z,15.28
2022-10-22T16:37:13.525Z,15.22
2022-10-22T16:39:42.382Z,15.16
2022-10-22T16:42:09.918Z,15.13
2022-10-22T16:44:37.471Z,15.09
2022-10-22T16:47:05.014Z,15.07
2022-10-22T16:49:32.562Z,15.05
2022-10-22T16:52:00.112Z,15.01
2022-10-22T16:54:27.722Z,14.97
2022-10-22T16:56:56.631Z,14.93
2022-10-22T16:59:24.502Z,14.90
2022-10-22T17:01:52.129Z,14.89
2022-10-22T17:04:19.691Z,14.87
2022-10-22T17:06:47.346Z,14.87
2022-10-22T17:09:15.368Z,14.85
2022-10-22T17:11:44.909Z,14.85
2022-10-22T17:14:14.067Z,14.85
2022-10-22T17:16:41.798Z,14.84
2022-10-22T17:19:11.679Z,14.85
2022-10-22T17:21:39.294Z,14.86
2022-10-22T17:24:07.118Z,14.84
2022-10-22T17:26:34.698Z,14.82
2022-10-22T17:29:02.237Z,14.79
2022-10-22T17:31:33.081Z,14.76
2022-10-22T17:34:00.777Z,14.73
2022-10-22T17:36:33.339Z,14.70
2022-10-22T17:39:06.710Z,14.69
2022-10-22T17:41:36.397Z,14.67
2022-10-22T17:44:05.839Z,14.67
2022-10-22T17:46:34.773Z,14.65
2022-10-22T17:49:04.992Z,14.64
2022-10-22T17:51:33.124Z,14.60
2022-10-22T17:54:01.716Z,14.60
2022-10-22T17:56:31.316Z,14.60
2022-10-22T17:58:59.720Z,14.60
2022-10-22T18:01:29.327Z,14.58
2022-10-22T18:04:01.487Z,14.58
2022-10-22T18:06:29.965Z,14.56
2022-10-22T18:08:57.851Z,14.55
2022-10-22T18:11:27.807Z,14.53
2022-10-22T18:13:57.038Z,14.53
2022-10-22T18:16:25.470Z,14.52
2022-10-22T18:18:54.743Z,14.52
2022-10-22T18:21:25.839Z,14.51
2022-10-22T18:23:54.191Z,14.50
2022-10-22T18:26:26.015Z,14.50
2022-10-22T18:28:54.636Z,14.50
2022-10-22T18:31:24.009Z,14.49
2022-10-22T18:36:28.365Z,14.47
2022-10-22T18:38:57.594Z,14.45
2022-10-22T18:41:26.181Z,14.45
2022-10-22T18:43:55.651Z,14.43
2022-10-22T18:46:23.916Z,14.40
2022-10-22T18:48:53.517Z,14.38
2022-10-22T18:51:21.662Z,14.35
2022-10-22T18:54:05.060Z,14.36
2022-10-22T18:56:42.063Z,14.35
2022-10-22T18:59:16.157Z,14.33
2022-10-22T19:01:43.704Z,14.31
2022-10-22T19:04:11.311Z,14.29
2022-10-22T19:06:41.759Z,14.28
2022-10-22T19:09:13.580Z,14.26
2022-10-22T19:11:41.298Z,14.24
2022-10-22T19:14:09.236Z,14.22
2022-10-22T19:16:37.570Z,14.23
2022-10-22T19:19:06.660Z,14.23
2022-10-22T19:21:34.831Z,14.21
2022-10-22T19:24:03.217Z,14.20
2022-10-22T19:26:32.411Z,14.15
2022-10-22T19:29:00.817Z,14.13
2022-10-22T19:31:31.102Z,14.13
2022-10-22T19:33:59.357Z,14.10
2022-10-22T19:36:29.019Z,14.10
2022-10-22T19:38:57.715Z,14.10
2022-10-22T19:41:26.953Z,14.09
2022-10-22T19:43:57.563Z,14.10
2022-10-22T19:46:27.292Z,14.11
2022-10-22T19:48:56.950Z,14.11
2022-10-22T19:51:27.133Z,14.12
2022-10-22T19:53:59.010Z,14.14
2022-10-22T19:56:26.658Z,14.14
2022-10-22T19:58:56.081Z,14.17
2022-10-22T20:01:23.708Z,14.16
2022-10-22T20:03:51.258Z,14.09
2022-10-22T20:06:18.874Z,14.08
2022-10-22T20:08:46.867Z,14.07
2022-10-22T20:11:18.470Z,14.02
2022-10-22T20:13:49.640Z,13.95
2022-10-22T20:16:22.932Z,13.90
2022-10-22T20:18:50.817Z,13.87
2022-10-22T20:21:19.903Z,13.83
2022-10-22T20:23:48.148Z,13.84
2022-10-22T20:26:15.681Z,13.84
2022-10-22T20:28:43.237Z,13.84
2022-10-22T20:31:11.627Z,13.83
2022-10-22T20:33:40.506Z,13.81
2022-10-22T20:36:10.007Z,13.81
2022-10-22T20:41:19.297Z,13.83
2022-10-22T20:43:47.642Z,13.84
2022-10-22T20:46:18.922Z,13.82
2022-10-22T20:48:48.143Z,13.84
2022-10-22T20:51:15.679Z,13.85
2022-10-22T20:53:43.337Z,13.84
2022-10-22T20:56:11.509Z,13.83
2022-10-22T20:58:39.225Z,13.82
2022-10-22T21:01:11.985Z,13.78
2022-10-22T21:03:40.119Z,13.72
2022-10-22T21:06:09.244Z,13.67
2022-10-22T21:08:36.784Z,13.60
2022-10-22T21:11:04.514Z,13.55
2022-10-22T21:13:32.662Z,13.49
2022-10-22T21:16:00.655Z,13.42
2022-10-22T21:18:28.181Z,13.34
2022-10-22T21:20:55.692Z,13.25
2022-10-22T21:23:24.564Z,13.18
2022-10-22T21:25:55.662Z,13.12
2022-10-22T21:28:23.266Z,13.05
2022-10-22T21:30:50.877Z,12.97
2022-10-22T21:33:18.525Z,12.90
2022-10-22T21:35:51.487Z,12.84
2022-10-22T21:38:19.042Z,12.77
2022-10-22T21:40:48.431Z,12.72
2022-10-22T21:43:16.653Z,12.65
2022-10-22T21:45:45.574Z,12.61
2022-10-22T21:48:13.871Z,12.56
2022-10-22T21:50:42.141Z,12.50
2022-10-22T21:53:10.134Z,12.46
2022-10-22T21:55:41.240Z,12.41
2022-10-22T21:58:10.181Z,12.35
2022-10-22T22:00:37.793Z,12.31
2022-10-22T22:03:08.089Z,12.26
2022-10-22T22:05:35.657Z,12.25
2022-10-22T22:08:03.282Z,12.20
2022-10-22T22:10:31.026Z,12.16
2022-10-22T22:12:58.646Z,12.13
2022-10-22T22:15:28.454Z,12.09
2022-10-22T22:17:56.053Z,12.05
2022-10-22T22:20:23.615Z,12.02
2022-10-22T22:22:51.242Z,11.98
2022-10-22T22:25:18.917Z,11.94
2022-10-22T22:27:46.497Z,11.92
2022-10-22T22:30:14.794Z,11.88
2022-10-22T22:32:43.671Z,11.85
2022-10-22T22:35:11.672Z,11.84
2022-10-22T22:37:39.307Z,11.79
2022-10-22T22:40:08.113Z,11.78
2022-10-22T22:42:35.715Z,11.76
2022-10-22T22:45:03.310Z,11.74
2022-10-22T22:47:31.118Z,11.73
2022-10-22T22:50:00.027Z,11.72
2022-10-22T22:52:27.560Z,11.71
2022-10-22T22:54:55.101Z,11.71
2022-10-22T22:57:22.626Z,11.70
2022-10-22T22:59:50.970Z,11.70
2022-10-22T23:02:18.542Z,11.70
2022-10-22T23:04:46.501Z,11.71
2022-10-22T23:07:15.407Z,11.76
2022-10-22T23:09:42.963Z,11.79
2022-10-22T23:12:10.533Z,11.82
2022-10-22T23:14:38.073Z,11.88
2022-10-22T23:17:05.654Z,11.92
2022-10-22T23:19:33.272Z,11.95
2022-10-22T23:22:00.882Z,11.97
2022-10-22T23:24:30.861Z,11.98
2022-10-22T23:27:01.783Z,11.98
2022-10-22T23:29:32.456Z,11.97
2022-10-22T23:32:02.102Z,11.95
2022-10-22T23:34:31.157Z,11.91
2022-10-22T23:36:59.894Z,11.86
2022-10-22T23:39:29.997Z,11.82
2022-10-22T23:41:58.494Z,11.79
2022-10-22T23:44:26.594Z,11.73
2022-10-22T23:46:55.118Z,11.70
2022-10-22T23:49:22.694Z,11.68
2022-10-22T23:51:50.256Z,11.64
2022-10-22T23:54:18.770Z,11.62
2022-10-22T23:56:48.196Z,11.60
2022-10-22T23:59:16.328Z,11.59
